JST550 YSSY-YSCB
Flight info
| Callsign | JST550 |
|---|---|
| Flight time | 0h 34m |
| Altitude | 20000 |
| Route | GROOK1/16R WOL H65 CB |
| Aircraft | A20N/M-SDE2E3FGHIRWXY/LB1 |
Departure
| Time | 2026-05-06 03:43 |
|---|---|
| Airport | Sydney Kingsford Smith International Airport (YSSY) |
Arrival
| Time | 2026-05-06 04:17 |
|---|---|
| Airport | Canberra Airport (YSCB) |
| Time | Latitude | Longitude | Altitude | Speed | Heading |
|---|---|---|---|---|---|
| 2026-05-06 03:25 | -33.93225 | 151.17672 | 30 ft | 0 kts | 71° |
| 2026-05-06 03:35 | -33.93227 | 151.17666 | 30 ft | 4 kts | 71° |
| 2026-05-06 03:35 | -33.93237 | 151.17629 | 30 ft | 5 kts | 71° |
| 2026-05-06 03:35 | -33.93250 | 151.17583 | 30 ft | 6 kts | 74° |
| 2026-05-06 03:36 | -33.93269 | 151.17563 | 29 ft | 0 kts | 345° |
| 2026-05-06 03:39 | -33.93245 | 151.17555 | 29 ft | 9 kts | 345° |
| 2026-05-06 03:39 | -33.93153 | 151.17534 | 30 ft | 17 kts | 347° |
| 2026-05-06 03:40 | -33.93055 | 151.17535 | 30 ft | 9 kts | 26° |
| 2026-05-06 03:40 | -33.92992 | 151.17513 | 30 ft | 10 kts | 302° |
| 2026-05-06 03:40 | -33.92974 | 151.17397 | 26 ft | 19 kts | 279° |
| 2026-05-06 03:40 | -33.92961 | 151.17316 | 22 ft | 0 kts | 282° |
| 2026-05-06 03:41 | -33.92955 | 151.17286 | 20 ft | 9 kts | 279° |
| 2026-05-06 03:42 | -33.92990 | 151.17190 | 19 ft | 16 kts | 208° |
| 2026-05-06 03:42 | -33.93032 | 151.17184 | 20 ft | 2 kts | 165° |
| 2026-05-06 03:42 | -33.93174 | 151.17222 | 25 ft | 53 kts | 168° |
| 2026-05-06 03:42 | -33.93772 | 151.17376 | 16 ft | 118 kts | 168° |
| 2026-05-06 03:43 | -33.94702 | 151.17623 | 248 ft | 144 kts | 167° |
| 2026-05-06 03:43 | -33.95707 | 151.17888 | 757 ft | 153 kts | 167° |
| 2026-05-06 03:43 | -33.96775 | 151.18156 | 1350 ft | 160 kts | 167° |
| 2026-05-06 03:43 | -33.97883 | 151.18408 | 1926 ft | 166 kts | 169° |
| 2026-05-06 03:44 | -33.99027 | 151.18634 | 2524 ft | 169 kts | 171° |
| 2026-05-06 03:44 | -34.00229 | 151.18813 | 3012 ft | 180 kts | 174° |
| 2026-05-06 03:44 | -34.01530 | 151.18862 | 3363 ft | 197 kts | 189° |
| 2026-05-06 03:44 | -34.02826 | 151.18149 | 3710 ft | 209 kts | 217° |
| 2026-05-06 03:45 | -34.04043 | 151.17200 | 4446 ft | 216 kts | 212° |
| 2026-05-06 03:45 | -34.05414 | 151.16247 | 4920 ft | 239 kts | 211° |
| 2026-05-06 03:45 | -34.06925 | 151.15205 | 5480 ft | 262 kts | 211° |
| 2026-05-06 03:45 | -34.08561 | 151.14047 | 6176 ft | 280 kts | 212° |
| 2026-05-06 03:46 | -34.10254 | 151.12823 | 7171 ft | 285 kts | 212° |
| 2026-05-06 03:46 | -34.11933 | 151.11598 | 8261 ft | 286 kts | 213° |
| 2026-05-06 03:46 | -34.13641 | 151.10344 | 9359 ft | 288 kts | 213° |
| 2026-05-06 03:46 | -34.15365 | 151.09076 | 10371 ft | 293 kts | 213° |
| 2026-05-06 03:47 | -34.17172 | 151.07742 | 10850 ft | 316 kts | 214° |
| 2026-05-06 03:47 | -34.19114 | 151.06306 | 11262 ft | 338 kts | 214° |
| 2026-05-06 03:47 | -34.21151 | 151.04804 | 12046 ft | 344 kts | 214° |
| 2026-05-06 03:47 | -34.23213 | 151.03286 | 12979 ft | 348 kts | 214° |
| 2026-05-06 03:48 | -34.25266 | 151.01774 | 13869 ft | 352 kts | 214° |
| 2026-05-06 03:48 | -34.27367 | 151.00225 | 14682 ft | 356 kts | 214° |
| 2026-05-06 03:48 | -34.29493 | 150.98653 | 15483 ft | 359 kts | 214° |
| 2026-05-06 03:48 | -34.31639 | 150.97066 | 16279 ft | 363 kts | 214° |
| 2026-05-06 03:49 | -34.33806 | 150.95461 | 17046 ft | 367 kts | 214° |
| 2026-05-06 03:49 | -34.35995 | 150.93840 | 17806 ft | 372 kts | 214° |
| 2026-05-06 03:49 | -34.38218 | 150.92192 | 18541 ft | 376 kts | 214° |
| 2026-05-06 03:49 | -34.40435 | 150.90547 | 19210 ft | 379 kts | 214° |
| 2026-05-06 03:50 | -34.42697 | 150.88869 | 19581 ft | 382 kts | 214° |
| 2026-05-06 03:50 | -34.44978 | 150.87176 | 19689 ft | 382 kts | 214° |
| 2026-05-06 03:50 | -34.47247 | 150.85491 | 19792 ft | 382 kts | 214° |
| 2026-05-06 03:50 | -34.49491 | 150.83822 | 19893 ft | 383 kts | 214° |
| 2026-05-06 03:51 | -34.51770 | 150.82124 | 20000 ft | 386 kts | 214° |
| 2026-05-06 03:51 | -34.54025 | 150.80357 | 20099 ft | 384 kts | 219° |
| 2026-05-06 03:51 | -34.56054 | 150.78257 | 20116 ft | 383 kts | 227° |
| 2026-05-06 03:51 | -34.57805 | 150.75831 | 20117 ft | 380 kts | 235° |
| 2026-05-06 03:52 | -34.59353 | 150.73238 | 20113 ft | 379 kts | 236° |
| 2026-05-06 03:52 | -34.60907 | 150.70653 | 20112 ft | 379 kts | 236° |
| 2026-05-06 03:52 | -34.62464 | 150.68075 | 20114 ft | 379 kts | 236° |
| 2026-05-06 03:52 | -34.64022 | 150.65495 | 20113 ft | 379 kts | 236° |
| 2026-05-06 03:53 | -34.65579 | 150.62912 | 20110 ft | 379 kts | 236° |
| 2026-05-06 03:53 | -34.67136 | 150.60324 | 20111 ft | 379 kts | 236° |
| 2026-05-06 03:53 | -34.68687 | 150.57743 | 20110 ft | 379 kts | 236° |
| 2026-05-06 03:53 | -34.70223 | 150.55183 | 20107 ft | 379 kts | 236° |
| 2026-05-06 03:54 | -34.71780 | 150.52588 | 20104 ft | 379 kts | 236° |
| 2026-05-06 03:54 | -34.73333 | 150.49997 | 20102 ft | 379 kts | 236° |
| 2026-05-06 03:54 | -34.74887 | 150.47404 | 20102 ft | 379 kts | 236° |
| 2026-05-06 03:54 | -34.76440 | 150.44810 | 20101 ft | 378 kts | 236° |
| 2026-05-06 03:55 | -34.77983 | 150.42230 | 20105 ft | 378 kts | 236° |
| 2026-05-06 03:55 | -34.79529 | 150.39643 | 20102 ft | 378 kts | 236° |
| 2026-05-06 03:55 | -34.81076 | 150.37054 | 20112 ft | 378 kts | 236° |
| 2026-05-06 03:55 | -34.82629 | 150.34449 | 20103 ft | 382 kts | 236° |
| 2026-05-06 03:56 | -34.84177 | 150.31854 | 20103 ft | 381 kts | 236° |
| 2026-05-06 03:56 | -34.85735 | 150.29241 | 20101 ft | 381 kts | 236° |
| 2026-05-06 03:56 | -34.87290 | 150.26632 | 20098 ft | 381 kts | 236° |
| 2026-05-06 03:56 | -34.88850 | 150.24010 | 20100 ft | 381 kts | 236° |
| 2026-05-06 03:57 | -34.90404 | 150.21398 | 20097 ft | 381 kts | 236° |
| 2026-05-06 03:57 | -34.91950 | 150.18796 | 20095 ft | 381 kts | 236° |
| 2026-05-06 03:57 | -34.93511 | 150.16165 | 20097 ft | 380 kts | 236° |
| 2026-05-06 03:57 | -34.95041 | 150.13588 | 20081 ft | 378 kts | 236° |
| 2026-05-06 03:58 | -34.96583 | 150.10986 | 19878 ft | 378 kts | 236° |
| 2026-05-06 03:58 | -34.98130 | 150.08373 | 19645 ft | 382 kts | 236° |
| 2026-05-06 03:58 | -34.99689 | 150.05739 | 19405 ft | 381 kts | 236° |
| 2026-05-06 03:58 | -35.01239 | 150.03119 | 19168 ft | 380 kts | 236° |
| 2026-05-06 03:59 | -35.02782 | 150.00509 | 18928 ft | 378 kts | 236° |
| 2026-05-06 03:59 | -35.04320 | 149.97905 | 18696 ft | 378 kts | 236° |
| 2026-05-06 03:59 | -35.05908 | 149.95405 | 18465 ft | 378 kts | 230° |
| 2026-05-06 03:59 | -35.07718 | 149.93070 | 18213 ft | 378 kts | 229° |
| 2026-05-06 04:00 | -35.09525 | 149.90754 | 17939 ft | 375 kts | 229° |
| 2026-05-06 04:00 | -35.11319 | 149.88445 | 17649 ft | 373 kts | 229° |
| 2026-05-06 04:00 | -35.13108 | 149.86143 | 17105 ft | 372 kts | 229° |
| 2026-05-06 04:00 | -35.14892 | 149.83839 | 16352 ft | 373 kts | 229° |
| 2026-05-06 04:01 | -35.16676 | 149.81528 | 15530 ft | 375 kts | 229° |
| 2026-05-06 04:01 | -35.18489 | 149.79179 | 14609 ft | 381 kts | 229° |
| 2026-05-06 04:01 | -35.20249 | 149.76906 | 14452 ft | 364 kts | 229° |
| 2026-05-06 04:01 | -35.21964 | 149.74690 | 14099 ft | 354 kts | 230° |
| 2026-05-06 04:02 | -35.23639 | 149.72521 | 13699 ft | 346 kts | 230° |
| 2026-05-06 04:02 | -35.25277 | 149.70396 | 13237 ft | 341 kts | 230° |
| 2026-05-06 04:02 | -35.26913 | 149.68269 | 12488 ft | 346 kts | 229° |
| 2026-05-06 04:02 | -35.28581 | 149.66097 | 11496 ft | 355 kts | 229° |
| 2026-05-06 04:03 | -35.30309 | 149.63847 | 10303 ft | 368 kts | 230° |
| 2026-05-06 04:03 | -35.32100 | 149.61517 | 9016 ft | 380 kts | 229° |
| 2026-05-06 04:03 | -35.33934 | 149.59136 | 7954 ft | 385 kts | 229° |
| 2026-05-06 04:03 | -35.35760 | 149.56764 | 7144 ft | 381 kts | 229° |
| 2026-05-06 04:04 | -35.37552 | 149.54437 | 6763 ft | 367 kts | 229° |
| 2026-05-06 04:04 | -35.39264 | 149.52212 | 6565 ft | 349 kts | 230° |
| 2026-05-06 04:04 | -35.40351 | 149.50793 | 6431 ft | 338 kts | 230° |
| 2026-05-06 04:04 | -35.41929 | 149.48734 | 6218 ft | 324 kts | 230° |
| 2026-05-06 04:05 | -35.43920 | 149.46139 | 5942 ft | 307 kts | 230° |
| 2026-05-06 04:05 | -35.45351 | 149.44274 | 5637 ft | 291 kts | 230° |
| 2026-05-06 04:05 | -35.46682 | 149.42540 | 5545 ft | 268 kts | 230° |
| 2026-05-06 04:05 | -35.47514 | 149.41454 | 5507 ft | 251 kts | 231° |
| 2026-05-06 04:06 | -35.48650 | 149.39967 | 5408 ft | 234 kts | 231° |
| 2026-05-06 04:06 | -35.49729 | 149.38559 | 5388 ft | 217 kts | 232° |
| 2026-05-06 04:06 | -35.50727 | 149.37245 | 5392 ft | 203 kts | 232° |
| 2026-05-06 04:06 | -35.51654 | 149.36030 | 5398 ft | 186 kts | 232° |
| 2026-05-06 04:07 | -35.52504 | 149.34921 | 5384 ft | 169 kts | 232° |
| 2026-05-06 04:07 | -35.53270 | 149.33925 | 5375 ft | 151 kts | 234° |
| 2026-05-06 04:07 | -35.53979 | 149.32995 | 5384 ft | 148 kts | 234° |
| 2026-05-06 04:07 | -35.54679 | 149.32056 | 5406 ft | 156 kts | 236° |
| 2026-05-06 04:08 | -35.55293 | 149.30879 | 5373 ft | 166 kts | 260° |
| 2026-05-06 04:08 | -35.55457 | 149.29497 | 5389 ft | 162 kts | 268° |
| 2026-05-06 04:08 | -35.55599 | 149.28160 | 5383 ft | 161 kts | 268° |
| 2026-05-06 04:08 | -35.55758 | 149.26789 | 5374 ft | 160 kts | 268° |
| 2026-05-06 04:09 | -35.55912 | 149.25433 | 5388 ft | 164 kts | 267° |
| 2026-05-06 04:09 | -35.56065 | 149.24064 | 5398 ft | 163 kts | 268° |
| 2026-05-06 04:09 | -35.56223 | 149.22708 | 5389 ft | 160 kts | 268° |
| 2026-05-06 04:09 | -35.56054 | 149.21408 | 5390 ft | 154 kts | 302° |
| 2026-05-06 04:10 | -35.55250 | 149.20562 | 5397 ft | 158 kts | 335° |
| 2026-05-06 04:10 | -35.54274 | 149.20084 | 5385 ft | 147 kts | 336° |
| 2026-05-06 04:10 | -35.53361 | 149.19638 | 5370 ft | 133 kts | 339° |
| 2026-05-06 04:10 | -35.52465 | 149.19441 | 5375 ft | 133 kts | 353° |
| 2026-05-06 04:11 | -35.51557 | 149.19467 | 5390 ft | 126 kts | 356° |
| 2026-05-06 04:11 | -35.50704 | 149.19483 | 5397 ft | 118 kts | 354° |
| 2026-05-06 04:11 | -35.49872 | 149.19492 | 5420 ft | 124 kts | 354° |
| 2026-05-06 04:11 | -35.49000 | 149.19479 | 5395 ft | 125 kts | 353° |
| 2026-05-06 04:12 | -35.48118 | 149.19456 | 5284 ft | 129 kts | 354° |
| 2026-05-06 04:12 | -35.47236 | 149.19447 | 5050 ft | 122 kts | 355° |
| 2026-05-06 04:12 | -35.46392 | 149.19446 | 4882 ft | 123 kts | 355° |
| 2026-05-06 04:12 | -35.45540 | 149.19445 | 4705 ft | 124 kts | 355° |
| 2026-05-06 04:13 | -35.44685 | 149.19445 | 4531 ft | 122 kts | 356° |
| 2026-05-06 04:13 | -35.43842 | 149.19445 | 4366 ft | 121 kts | 354° |
| 2026-05-06 04:13 | -35.42987 | 149.19445 | 4193 ft | 122 kts | 355° |
| 2026-05-06 04:13 | -35.42132 | 149.19445 | 4024 ft | 121 kts | 355° |
| 2026-05-06 04:14 | -35.41283 | 149.19445 | 3855 ft | 122 kts | 354° |
| 2026-05-06 04:14 | -35.40435 | 149.19445 | 3699 ft | 123 kts | 355° |
| 2026-05-06 04:14 | -35.39595 | 149.19446 | 3524 ft | 117 kts | 356° |
| 2026-05-06 04:14 | -35.38776 | 149.19443 | 3366 ft | 119 kts | 355° |
| 2026-05-06 04:15 | -35.37963 | 149.19446 | 3209 ft | 121 kts | 355° |
| 2026-05-06 04:15 | -35.37077 | 149.19443 | 3040 ft | 130 kts | 357° |
| 2026-05-06 04:15 | -35.36191 | 149.19445 | 2862 ft | 127 kts | 355° |
| 2026-05-06 04:15 | -35.35332 | 149.19447 | 2693 ft | 126 kts | 353° |
| 2026-05-06 04:16 | -35.34280 | 149.19436 | 2492 ft | 168 kts | 357° |
| 2026-05-06 04:16 | -35.33186 | 149.19447 | 2260 ft | 146 kts | 356° |
| 2026-05-06 04:16 | -35.32207 | 149.19455 | 1992 ft | 136 kts | 355° |
| 2026-05-06 04:16 | -35.31324 | 149.19451 | 1884 ft | 118 kts | 354° |
| 2026-05-06 04:17 | -35.30609 | 149.19440 | 1881 ft | 78 kts | 0° |
| 2026-05-06 04:17 | -35.30270 | 149.19444 | 1877 ft | 20 kts | 360° |
| 2026-05-06 04:17 | -35.30188 | 149.19426 | 1877 ft | 16 kts | 338° |
| 2026-05-06 04:17 | -35.30161 | 149.19381 | 1876 ft | 9 kts | 264° |
| 2026-05-06 04:18 | -35.30156 | 149.19309 | 1875 ft | 0 kts | 279° |
| 2026-05-06 04:18 | -35.30155 | 149.19301 | 1875 ft | 3 kts | 276° |
| 2026-05-06 04:18 | -35.30161 | 149.19271 | 1875 ft | 5 kts | 247° |
| 2026-05-06 04:18 | -35.30199 | 149.19241 | 1876 ft | 8 kts | 191° |
| 2026-05-06 04:19 | -35.30266 | 149.19239 | 1878 ft | 12 kts | 179° |
| 2026-05-06 04:19 | -35.30377 | 149.19240 | 1881 ft | 20 kts | 180° |
| 2026-05-06 04:19 | -35.30529 | 149.19237 | 1883 ft | 24 kts | 181° |
| 2026-05-06 04:19 | -35.30702 | 149.19237 | 1882 ft | 26 kts | 179° |
| 2026-05-06 04:20 | -35.30844 | 149.19236 | 1881 ft | 0 kts | 197° |
| 2026-05-06 04:20 | -35.30865 | 149.19237 | 1883 ft | 9 kts | 180° |
| 2026-05-06 04:20 | -35.30888 | 149.19222 | 1882 ft | 2 kts | 255° |
| 2026-05-06 04:20 | -35.30869 | 149.19174 | 1874 ft | 9 kts | 291° |
| 2026-05-06 04:21 | -35.30858 | 149.19140 | 1880 ft | 2 kts | 291° |
| 2026-05-06 04:21 | -35.30856 | 149.19135 | 1880 ft | 0 kts | 291° |